createdAt,value
2019-05-07T00:00:14.384Z,20.60
2019-05-07T00:04:18.943Z,26.67
2019-05-07T00:08:23.455Z,23.33
2019-05-07T00:12:28.106Z,25.33
2019-05-07T00:16:32.843Z,23.23
2019-05-07T00:20:37.454Z,25.63
2019-05-07T00:24:42.670Z,22.40
2019-05-07T00:28:47.413Z,26.20
2019-05-07T00:32:53.129Z,21.63
2019-05-07T00:36:59.485Z,22.60
2019-05-07T00:41:05.789Z,19.50
2019-05-07T00:45:19.654Z,27.03
2019-05-07T00:49:19.503Z,23.37
2019-05-07T00:53:24.112Z,23.30
2019-05-07T00:57:28.657Z,25.27
2019-05-07T01:01:33.847Z,23.87
2019-05-07T01:05:38.384Z,25.53
2019-05-07T01:09:43.130Z,25.40
2019-05-07T01:13:47.683Z,22.97
2019-05-07T01:17:52.336Z,23.80
2019-05-07T01:21:56.870Z,25.93
2019-05-07T01:26:03.091Z,23.53
2019-05-07T01:30:08.714Z,21.83
2019-05-07T01:34:14.890Z,27.30
2019-05-07T01:38:20.024Z,25.90
2019-05-07T01:42:24.665Z,27.57
2019-05-07T01:46:29.285Z,25.63
2019-05-07T01:50:34.109Z,24.47
2019-05-07T01:54:38.673Z,25.33
2019-05-07T01:58:43.337Z,23.63
2019-05-07T02:02:49.491Z,24.27
2019-05-07T02:06:58.428Z,22.60
2019-05-07T02:11:04.605Z,24.23
2019-05-07T02:15:11.844Z,24.07
2019-05-07T02:19:16.297Z,21.83
2019-05-07T02:23:22.188Z,22.47
2019-05-07T02:27:26.944Z,21.83
2019-05-07T02:31:33.782Z,20.63
2019-05-07T02:35:37.719Z,26.10
2019-05-07T02:39:46.699Z,25.23
2019-05-07T02:43:53.679Z,23.97
2019-05-07T02:47:57.641Z,23.63
2019-05-07T02:52:09.700Z,21.53
2019-05-07T02:56:14.311Z,23.77
2019-05-07T03:00:19.623Z,23.60
2019-05-07T03:04:24.977Z,23.30
2019-05-07T03:08:32.856Z,23.87
2019-05-07T03:12:36.289Z,20.07
2019-05-07T03:16:45.395Z,22.33
2019-05-07T03:20:48.172Z,20.40
2019-05-07T03:24:54.171Z,24.30
2019-05-07T03:29:00.120Z,23.40
2019-05-07T03:33:09.085Z,19.17
2019-05-07T03:37:15.128Z,23.53
2019-05-07T03:41:22.675Z,26.10
2019-05-07T03:49:36.655Z,24.52
2019-05-07T03:53:43.495Z,21.50
2019-05-07T03:57:46.873Z,27.70
2019-05-07T04:01:53.826Z,22.63
2019-05-07T04:05:57.417Z,22.27
2019-05-07T04:10:04.382Z,21.60
2019-05-07T04:14:08.119Z,22.93
2019-05-07T04:18:13.091Z,21.87
2019-05-07T04:22:19.405Z,18.77
2019-05-07T04:26:25.402Z,25.07
2019-05-07T04:30:33.042Z,28.60
2019-05-07T04:34:53.628Z,25.95
2019-05-07T04:38:57.975Z,25.17
2019-05-07T04:43:02.951Z,26.37
2019-05-07T04:47:07.250Z,26.47
2019-05-07T04:51:13.159Z,23.13
2019-05-07T04:55:17.415Z,28.23
2019-05-07T04:59:23.831Z,22.20
2019-05-07T05:03:28.458Z,22.30
2019-05-07T05:07:33.500Z,26.03
2019-05-07T05:11:37.974Z,23.73
2019-05-07T05:15:43.176Z,24.13
2019-05-07T05:19:47.688Z,24.70
2019-05-07T05:23:53.919Z,20.63
2019-05-07T05:27:58.492Z,23.60
2019-05-07T05:32:03.426Z,25.53
2019-05-07T05:36:08.046Z,24.87
2019-05-07T05:40:12.896Z,28.93
2019-05-07T05:44:22.759Z,28.27
2019-05-07T05:48:27.501Z,31.27
2019-05-07T05:52:33.794Z,28.10
2019-05-07T05:56:42.805Z,29.10
2019-05-07T06:00:54.923Z,27.97
2019-05-07T06:05:06.698Z,40.40
2019-05-07T06:09:18.547Z,38.13
2019-05-07T06:13:27.903Z,35.97
2019-05-07T06:17:37.238Z,34.83
2019-05-07T06:21:55.673Z,33.50
2019-05-07T06:26:05.051Z,35.07
2019-05-07T06:30:12.093Z,34.93
2019-05-07T06:34:16.879Z,34.85
2019-05-07T06:38:22.203Z,34.20
2019-05-07T06:42:33.227Z,30.73
2019-05-07T06:46:38.874Z,27.77
2019-05-07T06:50:45.211Z,22.43
2019-05-07T06:54:49.756Z,28.17
2019-05-07T06:58:58.946Z,25.13
2019-05-07T07:03:05.254Z,23.33
2019-05-07T07:07:29.648Z,23.03
2019-05-07T07:11:36.945Z,22.77
2019-05-07T07:15:42.699Z,24.40
2019-05-07T07:19:47.560Z,20.07
2019-05-07T07:23:52.439Z,23.87
2019-05-07T07:27:57.236Z,22.40
2019-05-07T07:32:06.134Z,20.87
2019-05-07T07:36:12.015Z,21.00
2019-05-07T07:40:25.086Z,19.97
2019-05-07T07:44:29.893Z,24.33
2019-05-07T07:48:34.532Z,23.93
2019-05-07T07:52:39.143Z,22.20
2019-05-07T07:56:53.000Z,20.17
2019-05-07T08:01:05.536Z,19.57
2019-05-07T08:05:12.380Z,20.33
2019-05-07T08:09:16.752Z,21.93
2019-05-07T08:13:22.904Z,19.70
2019-05-07T08:17:27.622Z,18.10
2019-05-07T08:21:33.178Z,20.37
2019-05-07T08:25:39.747Z,18.23
2019-05-07T08:29:44.294Z,20.33
2019-05-07T08:33:51.818Z,20.83
2019-05-07T08:37:56.444Z,22.60
2019-05-07T08:42:02.037Z,19.00
2019-05-07T08:46:22.216Z,19.87
2019-05-07T08:50:26.623Z,23.97
2019-05-07T08:54:32.286Z,21.40
2019-05-07T08:58:36.901Z,27.33
2019-05-07T09:02:42.069Z,21.73
2019-05-07T09:06:46.900Z,24.10
2019-05-07T09:10:52.520Z,22.43
2019-05-07T09:14:57.166Z,19.53
2019-05-07T09:19:02.201Z,22.03
2019-05-07T09:23:06.850Z,21.43
2019-05-07T09:27:22.394Z,20.77
2019-05-07T09:31:28.755Z,22.10
2019-05-07T09:35:39.725Z,21.53
2019-05-07T09:39:44.287Z,21.47
2019-05-07T09:43:48.907Z,24.93
2019-05-07T09:47:53.546Z,21.50
2019-05-07T09:51:58.194Z,21.00
2019-05-07T09:56:02.807Z,17.33
2019-05-07T10:00:08.571Z,21.10
2019-05-07T10:04:13.201Z,17.27
2019-05-07T10:08:17.885Z,20.27
2019-05-07T10:12:27.127Z,23.33
2019-05-07T10:16:49.759Z,19.90
2019-05-07T10:20:54.648Z,28.20
2019-05-07T10:24:59.247Z,18.77
2019-05-07T10:29:03.992Z,26.03
2019-05-07T10:33:08.628Z,22.30
2019-05-07T10:37:13.354Z,23.00
2019-05-07T10:41:18.071Z,22.87
2019-05-07T10:45:27.055Z,22.73
2019-05-07T10:49:33.371Z,20.80
2019-05-07T10:53:38.055Z,21.93
2019-05-07T10:57:42.894Z,23.53
2019-05-07T11:01:49.139Z,21.30
2019-05-07T11:05:53.778Z,28.23
2019-05-07T11:09:58.432Z,23.10
2019-05-07T11:14:03.366Z,25.93
2019-05-07T11:18:12.610Z,26.30
2019-05-07T11:22:17.361Z,27.23
2019-05-07T11:26:22.180Z,18.43
2019-05-07T11:30:27.390Z,19.50
2019-05-07T11:34:33.665Z,21.93
2019-05-07T11:38:38.282Z,22.27
2019-05-07T11:43:02.452Z,20.40
2019-05-07T11:47:12.315Z,19.77
2019-05-07T11:51:23.119Z,22.60
2019-05-07T11:55:27.837Z,23.10
2019-05-07T11:59:32.676Z,17.53
2019-05-07T12:03:37.359Z,16.23
2019-05-07T12:07:42.013Z,23.37
2019-05-07T12:11:46.615Z,18.97
2019-05-07T12:15:52.231Z,20.10
2019-05-07T12:19:57.039Z,16.83
2019-05-07T12:24:02.139Z,14.70
2019-05-07T12:28:07.173Z,17.53
2019-05-07T12:32:22.584Z,15.07
2019-05-07T12:36:27.525Z,16.67
2019-05-07T12:40:32.574Z,12.77
2019-05-07T12:44:37.234Z,14.93
2019-05-07T12:48:41.906Z,14.50
2019-05-07T12:53:03.284Z,17.07
2019-05-07T12:57:08.010Z,11.43
2019-05-07T13:01:17.459Z,11.27
2019-05-07T13:05:22.178Z,10.67
2019-05-07T13:09:26.727Z,12.77
2019-05-07T13:13:32.051Z,11.37
2019-05-07T13:17:36.739Z,14.87
2019-05-07T13:21:49.181Z,13.83
2019-05-07T13:25:47.588Z,14.57
2019-05-07T13:29:53.122Z,14.63
2019-05-07T13:34:00.180Z,12.10
2019-05-07T13:38:06.527Z,14.80
2019-05-07T13:42:12.744Z,12.73
2019-05-07T13:46:17.394Z,12.23
2019-05-07T13:50:22.171Z,9.77
2019-05-07T13:54:26.982Z,7.37
2019-05-07T13:58:32.941Z,8.30
2019-05-07T14:02:37.736Z,6.90
2019-05-07T14:06:43.137Z,9.33
2019-05-07T14:10:48.100Z,12.07
2019-05-07T14:14:53.244Z,8.00
2019-05-07T14:18:57.875Z,9.80
2019-05-07T14:23:02.415Z,11.07
2019-05-07T14:27:07.107Z,8.00
2019-05-07T14:31:12.325Z,11.83
2019-05-07T14:35:32.188Z,13.37
2019-05-07T14:39:37.068Z,12.17
2019-05-07T14:43:43.351Z,11.07
2019-05-07T14:47:48.144Z,12.17
2019-05-07T14:51:54.069Z,12.33
2019-05-07T14:55:59.192Z,11.47
2019-05-07T15:00:06.499Z,9.73
2019-05-07T15:04:12.933Z,10.68
2019-05-07T15:08:17.675Z,10.97
2019-05-07T15:12:23.341Z,10.67
2019-05-07T15:16:28.511Z,11.93
2019-05-07T15:20:33.189Z,14.67
2019-05-07T15:24:37.893Z,11.63
2019-05-07T15:28:44.492Z,13.10
2019-05-07T15:32:49.035Z,14.40
2019-05-07T15:36:53.660Z,9.80
2019-05-07T15:40:58.324Z,12.33
2019-05-07T15:45:03.155Z,11.07
2019-05-07T15:49:07.747Z,9.10
2019-05-07T15:53:13.912Z,11.90
2019-05-07T15:57:29.059Z,11.80
2019-05-07T16:01:33.630Z,10.47
2019-05-07T16:05:38.231Z,12.57
2019-05-07T16:09:43.384Z,13.27
2019-05-07T16:13:49.884Z,11.73
2019-05-07T16:17:59.295Z,13.30
2019-05-07T16:22:05.807Z,12.03
2019-05-07T16:26:12.958Z,10.37
2019-05-07T16:30:17.635Z,14.67
2019-05-07T16:34:24.607Z,10.00
2019-05-07T16:38:28.521Z,12.00
2019-05-07T16:42:33.152Z,10.67
2019-05-07T16:46:37.742Z,11.77
2019-05-07T16:50:42.348Z,12.40
2019-05-07T16:54:46.922Z,12.07
2019-05-07T16:58:53.108Z,11.37
2019-05-07T17:02:59.494Z,11.20
2019-05-07T17:07:05.837Z,11.40
2019-05-07T17:11:12.119Z,10.00
2019-05-07T17:15:17.398Z,10.77
2019-05-07T17:19:22.481Z,11.67
2019-05-07T17:23:34.434Z,12.77
2019-05-07T17:27:33.742Z,8.80
2019-05-07T17:31:38.343Z,8.57
2019-05-07T17:35:42.941Z,10.73
2019-05-07T17:39:47.589Z,10.30
2019-05-07T17:43:52.502Z,9.13
2019-05-07T17:47:57.110Z,12.63
2019-05-07T17:52:02.973Z,9.63
2019-05-07T17:56:07.744Z,10.07
2019-05-07T18:00:13.934Z,13.07
2019-05-07T18:04:18.467Z,13.87
2019-05-07T18:08:23.129Z,14.47
2019-05-07T18:12:27.909Z,10.00
2019-05-07T18:16:37.050Z,10.27
2019-05-07T18:20:42.197Z,13.17
2019-05-07T18:24:47.091Z,12.07
2019-05-07T18:28:52.206Z,13.57
2019-05-07T18:32:58.566Z,6.90
2019-05-07T18:37:03.091Z,9.17
2019-05-07T18:41:08.010Z,11.53
2019-05-07T18:45:12.782Z,7.43
2019-05-07T18:49:17.340Z,12.40
2019-05-07T18:53:22.707Z,12.13
2019-05-07T18:57:27.640Z,14.83
2019-05-07T19:01:34.113Z,9.93
2019-05-07T19:05:38.733Z,6.83
2019-05-07T19:09:43.344Z,7.67
2019-05-07T19:13:47.909Z,11.43
2019-05-07T19:17:52.931Z,10.50
2019-05-07T19:21:57.932Z,9.90
2019-05-07T19:26:02.601Z,10.33
2019-05-07T19:30:09.114Z,12.13
2019-05-07T19:34:13.722Z,9.70
2019-05-07T19:38:18.357Z,12.57
2019-05-07T19:42:22.988Z,11.83
2019-05-07T19:46:27.600Z,11.27
2019-05-07T19:50:32.479Z,8.33
2019-05-07T19:54:37.197Z,13.87
2019-05-07T19:58:42.048Z,10.77
2019-05-07T20:02:48.443Z,11.10
2019-05-07T20:06:53.039Z,10.97
2019-05-07T20:10:59.676Z,15.57
2019-05-07T20:15:05.943Z,15.70
2019-05-07T20:19:12.108Z,18.37
2019-05-07T20:23:16.990Z,16.97
2019-05-07T20:27:23.178Z,17.60
2019-05-07T20:31:28.161Z,13.97
2019-05-07T20:35:32.947Z,14.47
2019-05-07T20:39:37.566Z,13.37
2019-05-07T20:43:42.900Z,11.87
2019-05-07T20:47:47.612Z,18.13
2019-05-07T20:51:52.624Z,14.37
2019-05-07T20:55:58.915Z,14.13
2019-05-07T21:00:05.669Z,15.07
2019-05-07T21:04:12.644Z,13.83
2019-05-07T21:08:16.638Z,12.57
2019-05-07T21:12:22.565Z,18.33
2019-05-07T21:16:27.421Z,21.90
2019-05-07T21:20:32.429Z,16.53
2019-05-07T21:24:37.072Z,14.17
2019-05-07T21:28:43.100Z,19.27
2019-05-07T21:32:48.214Z,19.70
2019-05-07T21:36:52.917Z,17.57
2019-05-07T21:40:57.466Z,18.00
2019-05-07T21:45:02.236Z,20.93
2019-05-07T21:49:08.299Z,15.57
2019-05-07T21:53:22.805Z,18.93
2019-05-07T21:57:32.951Z,17.07
2019-05-07T22:01:39.264Z,16.40
2019-05-07T22:05:44.421Z,15.03
2019-05-07T22:09:49.062Z,19.27
2019-05-07T22:13:54.838Z,14.60
2019-05-07T22:17:59.877Z,15.93
2019-05-07T22:22:06.064Z,14.43
2019-05-07T22:26:20.387Z,16.90
2019-05-07T22:30:36.091Z,17.60
2019-05-07T22:34:42.548Z,14.60
2019-05-07T22:38:47.514Z,15.10
2019-05-07T22:42:52.036Z,14.77
2019-05-07T22:46:58.395Z,13.50
2019-05-07T22:51:03.131Z,15.57
2019-05-07T22:55:07.867Z,11.43
2019-05-07T22:59:14.691Z,11.03
2019-05-07T23:03:18.663Z,10.10
2019-05-07T23:07:23.345Z,13.57
2019-05-07T23:11:28.139Z,13.80
2019-05-07T23:15:32.719Z,9.43
2019-05-07T23:19:37.351Z,11.17
2019-05-07T23:23:42.379Z,9.47
2019-05-07T23:27:47.091Z,13.10
2019-05-07T23:31:52.786Z,13.70
2019-05-07T23:35:58.207Z,13.47
2019-05-07T23:40:04.747Z,13.80
2019-05-07T23:44:13.823Z,10.47
2019-05-07T23:48:18.326Z,11.03
2019-05-07T23:52:22.980Z,11.03
2019-05-07T23:56:27.620Z,10.60
